Christian Radich — LJLM — position and weather

sailwx.info

Track history (hours):
 
Tides and Currents Weather Stations Pressure Air Temp Water Temp Dewpoint Dewpoint Depression Visibility Wind Speed Wind Dir Waves Ship Positions

Christian Radich (Norway)

Last reported at 2019-Apr-26 03:30 UTC. Time now 2019-Apr-26 03:52 UTC.
Position N 62°28' E 006°09'.

Length 63 m; draft 5 m.

MMSI: 258373000.

Date/timePositionNaut miles runAvg speedWind from/ knotsBaromVisibWave heightAir tempDewpointWater temp
2019-Apr-26 03:30N 62°28' E 006°09'0 0.0
2019-Apr-26 03:00N 62°28' E 006°09'0 0.0
2019-Apr-26 02:28N 62°28' E 006°09'0 0.0
2019-Apr-26 01:58N 62°28' E 006°09'0 0.0
2019-Apr-26 01:28N 62°28' E 006°09'0 0.0
2019-Apr-26 00:59N 62°28' E 006°09'0 0.0
2019-Apr-26 00:29N 62°28' E 006°09'0 0.0
2019-Apr-25 23:59N 62°28' E 006°09'0 0.0
2019-Apr-25 23:30N 62°28' E 006°09'0 0.0
2019-Apr-25 22:54N 62°28' E 006°09'0 0.0
2019-Apr-25 22:30N 62°28' E 006°09'0 0.0
2019-Apr-25 21:58N 62°28' E 006°09'0 0.0
2019-Apr-25 21:28N 62°28' E 006°09'0 0.0
2019-Apr-25 20:58N 62°28' E 006°09'0 0.0
2019-Apr-25 20:29N 62°28' E 006°09'0 0.0
2019-Apr-25 19:59N 62°28' E 006°09'0 0.0
2019-Apr-25 19:29N 62°28' E 006°09'0 0.0
2019-Apr-25 19:00N 62°28' E 006°09'0 0.0
2019-Apr-25 18:30N 62°28' E 006°09'0 0.0
2019-Apr-25 18:00N 62°28' E 006°09'0 0.0
2019-Apr-25 17:28N 62°28' E 006°09'0 0.0
2019-Apr-25 16:58N 62°28' E 006°09'0 0.0
2019-Apr-25 16:28N 62°28' E 006°09'0 0.0
2019-Apr-25 15:59N 62°28' E 006°09'0 0.0
2019-Apr-25 15:29N 62°28' E 006°09'0 0.0
2019-Apr-25 14:59N 62°28' E 006°09'0 0.0
2019-Apr-25 14:30N 62°28' E 006°09'0 0.0
2019-Apr-25 14:00N 62°28' E 006°09'0 0.0
2019-Apr-25 13:30N 62°28' E 006°09'0 0.0
2019-Apr-25 12:58N 62°28' E 006°09'0 0.0
2019-Apr-25 12:28N 62°28' E 006°09'0 0.0
2019-Apr-25 11:58N 62°28' E 006°09'0 0.0
2019-Apr-25 11:29N 62°28' E 006°09'0 0.0
2019-Apr-25 10:56N 62°28' E 006°09'0 0.0
2019-Apr-25 10:29N 62°28' E 006°09'0 0.0
2019-Apr-25 09:57N 62°28' E 006°09'0 0.0
2019-Apr-25 09:30N 62°28' E 006°09'0 0.0
2019-Apr-25 09:00N 62°28' E 006°09'0 0.0
2019-Apr-25 08:28N 62°28' E 006°09'0 0.0
2019-Apr-25 07:58N 62°28' E 006°09'0 0.0
2019-Apr-25 07:28N 62°28' E 006°09'0 0.0
2019-Apr-25 06:59N 62°28' E 006°09'0 0.0
2019-Apr-25 06:29N 62°28' E 006°09'0 0.0
2019-Apr-25 05:53N 62°28' E 006°09'0 0.0
2019-Apr-25 05:30N 62°28' E 006°09'0 0.0
2019-Apr-25 05:00N 62°28' E 006°09'0 0.0
2019-Apr-25 04:24N 62°28' E 006°09'0 0.0
2019-Apr-25 04:01N 62°28' E 006°09'0 0.0
2019-Apr-25 03:25N 62°28' E 006°09'0 0.0
2019-Apr-25 02:58N 62°28' E 006°09'0 0.0
2019-Apr-25 02:29N 62°28' E 006°09'0 0.0
2019-Apr-25 01:59N 62°28' E 006°09'0 0.0
2019-Apr-25 01:29N 62°28' E 006°09'0 0.0
2019-Apr-25 01:00N 62°28' E 006°09'0 0.0
2019-Apr-25 00:30N 62°28' E 006°09'0 0.0
2019-Apr-25 00:00N 62°28' E 006°09'0 0.0
2019-Apr-24 23:31N 62°28' E 006°09'0 0.0
2019-Apr-24 22:58N 62°28' E 006°09'0 0.0
2019-Apr-24 22:28N 62°28' E 006°09'0 0.0
2019-Apr-24 21:59N 62°28' E 006°09'0 0.0
2019-Apr-24 21:29N 62°28' E 006°09'0 0.0
2019-Apr-24 20:59N 62°28' E 006°09'0 0.0
2019-Apr-24 20:24N 62°28' E 006°09'0 0.0
2019-Apr-24 20:00N 62°28' E 006°09'0 0.0
2019-Apr-24 19:27N 62°28' E 006°09'0 0.0
2019-Apr-24 18:55N 62°28' E 006°09'0 0.0
2019-Apr-24 18:28N 62°28' E 006°09'0 0.0
2019-Apr-24 17:58N 62°28' E 006°09'0 0.0
2019-Apr-24 17:26N 62°28' E 006°09'0 0.2
2019-Apr-24 17:00N 62°28' E 006°10'2 3.5
2019-Apr-24 16:30N 62°27' E 006°07'2 3.4
2019-Apr-24 16:00N 62°28' E 006°05'2 5.0
2019-Apr-24 15:30N 62°30' E 006°09'3 5.6
2019-Apr-24 14:59N 62°33' E 006°10'4 8.1
2019-Apr-24 14:30N 62°36' E 006°16'4 9.0
2019-Apr-24 14:00N 62°39' E 006°24'4 8.9
2019-Apr-24 13:30N 62°43' E 006°29'5 9.3
2019-Apr-24 13:00N 62°46' E 006°34'5 9.2
2019-Apr-24 12:30N 62°50' E 006°40'5 9.1
2019-Apr-24 12:00N 62°54' E 006°46'5 9.3
2019-Apr-24 11:30N 62°58' E 006°52'5 9.0
2019-Apr-24 10:59N 63°00' E 007°01'4 9.2
2019-Apr-24 10:30N 63°02' E 007°10'5 9.2
2019-Apr-24 10:00N 63°03' E 007°19'5 9.2
2019-Apr-24 09:30N 63°05' E 007°29'5 9.3
2019-Apr-24 09:00N 63°08' E 007°37'4 8.9
2019-Apr-24 08:30N 63°10' E 007°45'4 8.8
2019-Apr-24 08:00N 63°13' E 007°53'4 8.9
2019-Apr-24 07:31N 63°15' E 008°02'5 9.0
2019-Apr-24 07:01N 63°17' E 008°11'5 9.0
2019-Apr-24 06:30N 63°20' E 008°19'5 9.5
2019-Apr-24 06:01N 63°23' E 008°27'5 9.7
2019-Apr-24 05:30N 63°25' E 008°37'5 9.9
2019-Apr-24 05:00N 63°27' E 008°47'5 9.8
2019-Apr-24 04:30N 63°28' E 008°57'5 9.8
2019-Apr-24 04:00N 63°31' E 009°07'5 9.1
2019-Apr-24 03:30N 63°33' E 009°15'4 9.2
2019-Apr-24 03:01N 63°38' E 009°16'4 8.7
2019-Apr-24 02:30N 63°42' E 009°15'4 8.9
2019-Apr-24 02:00N 63°47' E 009°14'4 8.7
2019-Apr-24 01:30N 63°51' E 009°16'5 9.0
2019-Apr-24 01:00N 63°55' E 009°21'5 9.5
2019-Apr-24 00:30N 63°59' E 009°25'5 9.6
2019-Apr-24 00:00N 64°04' E 009°29'5 9.1
2019-Apr-23 23:30N 64°08' E 009°35'5 9.3
2019-Apr-23 23:00N 64°11' E 009°42'5 9.7
2019-Apr-23 22:30N 64°15' E 009°50'5 9.1
2019-Apr-23 22:00N 64°18' E 009°57'5 9.0
2019-Apr-23 21:29N 64°21' E 010°04'4 8.8
2019-Apr-23 21:00N 64°24' E 010°11'4 9.0
2019-Apr-23 20:30N 64°28' E 010°18'5 9.2
2019-Apr-23 20:00N 64°31' E 010°25'5 9.1
2019-Apr-23 19:30N 64°34' E 010°33'5 9.5
2019-Apr-23 19:00N 64°38' E 010°41'5 9.6
2019-Apr-23 18:30N 64°41' E 010°48'5 9.8
2019-Apr-23 18:00N 64°44' E 010°57'5 9.6
2019-Apr-23 17:30N 64°47' E 011°05'5 9.9
2019-Apr-23 17:00N 64°51' E 011°13'5 9.7
2019-Apr-23 16:30N 64°54' E 011°22'5 9.7
2019-Apr-23 16:00N 64°57' E 011°31'5 9.2
2019-Apr-23 15:29N 65°01' E 011°39'4 9.0
2019-Apr-23 15:00N 65°04' E 011°45'4 8.4
2019-Apr-23 14:30N 65°08' E 011°49'2 4.3
2019-Apr-23 14:00N 65°10' E 011°51'4 8.7
2019-Apr-23 13:30N 65°14' E 011°55'4 9.1
2019-Apr-23 13:00N 65°18' E 011°59'4 8.0
2019-Apr-23 12:30N 65°22' E 012°02'4 8.1
2019-Apr-23 12:00N 65°25' E 011°57'4 7.9
2019-Apr-23 11:30N 65°29' E 011°59'4 8.7
2019-Apr-23 11:01N 65°33' E 012°03'5 9.0
2019-Apr-23 10:30N 65°36' E 012°11'4 8.7
2019-Apr-23 10:00N 65°40' E 012°14'4 8.5
2019-Apr-23 09:29N 65°44' E 012°17'4 8.9
2019-Apr-23 09:00N 65°49' E 012°20'4 8.8
2019-Apr-23 08:30N 65°53' E 012°22'4 8.6
2019-Apr-23 08:00N 65°57' E 012°25'4 8.0
2019-Apr-23 07:30N 66°00' E 012°31'5 9.2
2019-Apr-23 07:01N 66°04' E 012°38'4 8.6
2019-Apr-23 06:30N 66°07' E 012°45'4 8.7
2019-Apr-23 06:00N 66°11' E 012°50'4 8.8
2019-Apr-23 05:30N 66°15' E 012°54'4 8.0
2019-Apr-23 05:00N 66°19' E 012°56'4 7.4
2019-Apr-23 04:30N 66°22' E 012°58'4 7.3
2019-Apr-23 04:00N 66°26' E 012°59'3 7.0
2019-Apr-23 03:31N 66°30' E 012°59'3 6.1
2019-Apr-23 03:00N 66°33' E 012°60'3 6.5
2019-Apr-23 02:30N 66°35' E 013°05'4 7.1
2019-Apr-23 02:00N 66°39' E 013°06'4 7.1
2019-Apr-23 01:28N 66°42' E 013°10'3 6.9
2019-Apr-23 01:00N 66°45' E 013°13'3 6.7
2019-Apr-23 00:30N 66°48' E 013°15'3 6.0
2019-Apr-23 00:00N 66°51' E 013°19'3 6.6
2019-Apr-22 23:30N 66°54' E 013°25'3 5.9
2019-Apr-22 22:59N 66°56' E 013°29'2 4.8
2019-Apr-22 22:30N 66°58' E 013°32'3 5.1
2019-Apr-22 22:00N 66°60' E 013°37'3 6.3
2019-Apr-22 21:29N 67°01' E 013°44'3 6.2
2019-Apr-22 21:01N 67°03' E 013°51'3 6.4
2019-Apr-22 20:31N 67°05' E 013°56'3 5.9
2019-Apr-22 20:00N 67°08' E 014°01'3 5.5
2019-Apr-22 19:31N 67°10' E 014°03'3 5.8
2019-Apr-22 19:00N 67°13' E 014°07'3 5.6
2019-Apr-22 18:30N 67°15' E 014°10'3 5.2
2019-Apr-22 18:01N 67°17' E 014°14'3 5.0
2019-Apr-22 17:30N 67°19' E 014°18'3 5.7
2019-Apr-22 17:00N 67°21' E 014°23'3 5.3
2019-Apr-22 16:30N 67°24' E 014°26'2 4.6
2019-Apr-22 16:01N 67°26' E 014°28'1 2.3
2019-Apr-22 15:30N 67°27' E 014°28'1 2.7
2019-Apr-22 15:01N 67°28' E 014°27'2 4.0
2019-Apr-22 14:30N 67°30' E 014°25'3 6.2
2019-Apr-22 14:01N 67°33' E 014°22'3 6.5
2019-Apr-22 13:28N 67°36' E 014°18'3 6.4
2019-Apr-22 13:00N 67°39' E 014°15'4 7.4
2019-Apr-22 12:30N 67°43' E 014°14'4 8.1
2019-Apr-22 12:01N 67°47' E 014°17'4 8.2
2019-Apr-22 11:30N 67°50' E 014°22'5 8.7
2019-Apr-22 10:59N 67°54' E 014°31'4 8.8
2019-Apr-22 10:30N 67°56' E 014°39'4 9.0
2019-Apr-22 10:01N 67°59' E 014°48'5 8.9
2019-Apr-22 09:29N 68°02' E 014°58'4 9.1
2019-Apr-22 09:00N 68°05' E 015°07'4 8.8
2019-Apr-22 08:30N 68°08' E 015°16'4 8.7
2019-Apr-22 08:00N 68°10' E 015°25'510.0
2019-Apr-22 07:30N 68°13' E 015°36'5 9.7
2019-Apr-22 06:59N 68°17' E 015°45'5 9.6
2019-Apr-22 06:30N 68°20' E 015°54'5 9.7
2019-Apr-22 06:00N 68°24' E 016°02'4 8.7
2019-Apr-22 05:30N 68°28' E 016°06'4 7.6
2019-Apr-22 05:00N 68°32' E 016°11'4 7.2
2019-Apr-22 04:30N 68°33' E 016°20'4 7.4
2019-Apr-22 04:00N 68°33' E 016°30'3 6.4
2019-Apr-22 03:30N 68°36' E 016°33'3 5.7
2019-Apr-22 03:00N 68°39' E 016°37'3 6.5
2019-Apr-22 02:30N 68°42' E 016°41'4 7.1
2019-Apr-22 02:00N 68°45' E 016°46'4 7.4
2019-Apr-22 01:31N 68°48' E 016°50'4 7.5
2019-Apr-22 01:00N 68°51' E 016°55'4 7.3
2019-Apr-22 00:30N 68°55' E 016°60'3 6.8
2019-Apr-22 00:00N 68°57' E 017°05'3 6.4
2019-Apr-21 23:31N 68°59' E 017°12'3 6.3
2019-Apr-21 23:00N 69°02' E 017°18'3 6.3
2019-Apr-21 22:30N 69°05' E 017°22'3 6.3
2019-Apr-21 22:00N 69°06' E 017°29'3 7.0
2019-Apr-21 21:30N 69°08' E 017°38'4 7.5
2019-Apr-21 21:00N 69°09' E 017°48'4 7.8
2019-Apr-21 20:31N 69°10' E 017°58'3 6.0
2019-Apr-21 20:00N 69°13' E 017°57'4 8.0
2019-Apr-21 19:30N 69°17' E 017°58'4 6.9
2019-Apr-21 18:59N 69°20' E 018°03'3 5.6
2019-Apr-21 18:30N 69°23' E 018°05'4 7.3
2019-Apr-21 18:00N 69°27' E 018°07'3 6.4
2019-Apr-21 17:30N 69°29' E 018°12'4 8.1
2019-Apr-21 17:00N 69°31' E 018°23'4 7.5
2019-Apr-21 16:30N 69°32' E 018°33'4 7.4
2019-Apr-21 16:00N 69°33' E 018°43'4 8.4
2019-Apr-21 15:30N 69°36' E 018°52'4 7.4
2019-Apr-21 15:00N 69°40' E 018°52'3 5.8
2019-Apr-21 14:30N 69°42' E 018°57'3 5.3
2019-Apr-21 14:00N 69°40' E 018°51'2 3.0
2019-Apr-21 13:30N 69°41' E 018°54'2 4.4
2019-Apr-21 13:00N 69°43' E 018°59'3 6.1
2019-Apr-21 12:30N 69°45' E 019°04'3 6.0
2019-Apr-21 12:00N 69°47' E 019°12'4 7.3
2019-Apr-21 11:29N 69°48' E 019°22'4 7.7
2019-Apr-21 11:00N 69°49' E 019°32'4 8.7
2019-Apr-21 10:30N 69°51' E 019°44'4 8.6
2019-Apr-21 10:00N 69°53' E 019°54'4 8.5
2019-Apr-21 09:30N 69°56' E 020°04'2 4.7
2019-Apr-21 09:00N 69°57' E 020°11'1 1.4
2019-Apr-21 08:28N 69°56' E 020°11'0 0.1
2019-Apr-21 07:58N 69°56' E 020°11'0 0.0
2019-Apr-21 07:29N 69°56' E 020°11'0 0.0
2019-Apr-21 06:59N 69°56' E 020°11'0 0.0
2019-Apr-21 06:29N 69°56' E 020°11'0 0.0
2019-Apr-21 06:00N 69°56' E 020°11'0 0.0
2019-Apr-21 05:30N 69°56' E 020°11'0 0.0
2019-Apr-21 05:00N 69°56' E 020°11'0 0.0
2019-Apr-21 04:28N 69°56' E 020°11'0 0.0
2019-Apr-21 03:58N 69°56' E 020°11'0 0.0
2019-Apr-21 03:28N 69°56' E 020°11'0 0.0
2019-Apr-21 02:59N 69°56' E 020°11'0 0.0
2019-Apr-21 02:29N 69°56' E 020°11'0 0.0
2019-Apr-21 01:59N 69°56' E 020°11'0 0.0
2019-Apr-21 01:30N 69°56' E 020°11'0 0.0
2019-Apr-21 01:00N 69°56' E 020°11'0 0.0
2019-Apr-21 00:30N 69°56' E 020°11'0 0.0
2019-Apr-20 23:58N 69°56' E 020°11'0 0.0
2019-Apr-20 23:28N 69°56' E 020°11'0 0.0
2019-Apr-20 22:59N 69°56' E 020°11'0 0.1
2019-Apr-20 22:29N 69°56' E 020°11'0 0.0
2019-Apr-20 21:59N 69°56' E 020°11'0 0.1
2019-Apr-20 21:30N 69°56' E 020°11'0 0.0
2019-Apr-20 21:00N 69°56' E 020°11'0 0.0
2019-Apr-20 20:30N 69°56' E 020°11'0 0.0
2019-Apr-20 20:01N 69°56' E 020°11'0 0.0
2019-Apr-20 19:28N 69°56' E 020°11'0 0.0
2019-Apr-20 18:58N 69°56' E 020°11'0 0.0
2019-Apr-20 18:29N 69°56' E 020°11'0 0.0
2019-Apr-20 17:59N 69°56' E 020°11'0 0.0
2019-Apr-20 17:29N 69°56' E 020°11'0 0.0
2019-Apr-20 17:00N 69°56' E 020°11'0 0.0
2019-Apr-20 16:30N 69°56' E 020°11'0 0.0
2019-Apr-20 16:00N 69°56' E 020°11'0 0.0
2019-Apr-20 15:28N 69°56' E 020°11'0 0.0
2019-Apr-20 14:58N 69°56' E 020°11'0 0.0
2019-Apr-20 14:28N 69°56' E 020°11'0 0.0
2019-Apr-20 13:59N 69°56' E 020°11'0 0.0
2019-Apr-20 13:29N 69°56' E 020°11'0 0.0
2019-Apr-20 12:59N 69°56' E 020°11'0 0.0
2019-Apr-20 12:30N 69°56' E 020°11'0 0.0
2019-Apr-20 12:00N 69°56' E 020°11'0 0.0
2019-Apr-20 11:30N 69°56' E 020°11'0 0.0
2019-Apr-20 10:58N 69°56' E 020°11'0 0.0
2019-Apr-20 10:28N 69°56' E 020°11'0 0.0
2019-Apr-20 09:58N 69°56' E 020°11'0 0.0
2019-Apr-20 09:29N 69°56' E 020°11'0 0.0
2019-Apr-20 08:59N 69°56' E 020°11'0 0.0
2019-Apr-20 08:29N 69°56' E 020°11'0 0.0
2019-Apr-20 08:00N 69°56' E 020°11'0 0.0
2019-Apr-20 07:30N 69°56' E 020°11'0 0.0
2019-Apr-20 07:00N 69°56' E 020°11'0 0.0
2019-Apr-20 06:28N 69°56' E 020°11'0 0.0
2019-Apr-20 05:58N 69°56' E 020°11'0 0.0
2019-Apr-20 05:28N 69°56' E 020°11'0 0.0
2019-Apr-20 04:59N 69°56' E 020°11'0 0.0
2019-Apr-20 04:29N 69°56' E 020°11'0 0.0
2019-Apr-20 03:59N 69°56' E 020°11'0 0.0
2019-Apr-20 03:30N 69°56' E 020°11'0 0.0
2019-Apr-20 03:00N 69°56' E 020°11'0 0.0
2019-Apr-20 02:30N 69°56' E 020°11'0 0.0
2019-Apr-20 01:58N 69°56' E 020°11'0 0.0
2019-Apr-20 01:28N 69°56' E 020°11'0 0.0
2019-Apr-20 00:58N 69°56' E 020°11'0 0.0
2019-Apr-20 00:29N 69°56' E 020°11'0 0.0
2019-Apr-19 23:59N 69°56' E 020°11'0 0.0
2019-Apr-19 23:29N 69°56' E 020°11'0 0.1
2019-Apr-19 23:00N 69°56' E 020°11'0 0.0
2019-Apr-19 22:30N 69°56' E 020°11'0 0.0
2019-Apr-19 22:00N 69°56' E 020°11'0 0.0
2019-Apr-19 21:28N 69°56' E 020°11'0 0.0
2019-Apr-19 20:58N 69°56' E 020°11'0 0.0
2019-Apr-19 20:28N 69°56' E 020°11'0 0.0
2019-Apr-19 19:59N 69°56' E 020°11'0 0.0
2019-Apr-19 19:29N 69°56' E 020°11'0 0.0
2019-Apr-19 18:59N 69°56' E 020°11'0 0.1
2019-Apr-19 18:29N 69°56' E 020°11'2 3.7
2019-Apr-19 18:00N 69°58' E 020°12'3 5.1
2019-Apr-19 17:30N 69°59' E 020°18'4 8.2
2019-Apr-19 17:00N 69°56' E 020°26'5 9.4
2019-Apr-19 16:30N 69°51' E 020°28'4 8.4
2019-Apr-19 16:00N 69°47' E 020°31'3 0.1
2019-Apr-18 18:01N 69°48' E 020°40'0 9.5
2019-Apr-18 17:59N 69°48' E 020°40'4 8.4
2019-Apr-18 17:30N 69°52' E 020°44'4 8.6
2019-Apr-18 17:00N 69°55' E 020°52'4 8.9
2019-Apr-18 16:30N 69°58' E 021°02'4 7.8
2019-Apr-18 15:58N 70°02' E 021°07'4 9.2
2019-Apr-18 15:30N 70°06' E 021°03'4 8.8
2019-Apr-18 15:00N 70°10' E 020°59'4 8.1
2019-Apr-18 14:28N 70°14' E 020°53'3 5.4
2019-Apr-18 13:59N 70°16' E 020°49'4 7.8
2019-Apr-18 13:29N 70°19' E 020°41'4 8.4
2019-Apr-18 13:00N 70°21' E 020°31'4 7.3
2019-Apr-18 12:30N 70°24' E 020°23'4 7.5
2019-Apr-18 12:00N 70°26' E 020°14'4 7.8
2019-Apr-18 11:30N 70°27' E 020°03'510.1
2019-Apr-18 11:00N 70°29' E 019°49'4 8.7
2019-Apr-18 10:30N 70°29' E 019°36'5 9.4
2019-Apr-18 09:59N 70°28' E 019°22'3 6.8
2019-Apr-18 09:30N 70°28' E 019°12'4 7.5
2019-Apr-18 08:58N 70°27' E 019°00'4 7.6
2019-Apr-18 08:30N 70°27' E 018°50'4 8.1
2019-Apr-18 08:00N 70°26' E 018°38'3 7.0
2019-Apr-18 07:30N 70°25' E 018°28'3 6.3
2019-Apr-18 07:00N 70°23' E 018°20'3 6.4
2019-Apr-18 06:30N 70°22' E 018°12'3 5.3
2019-Apr-18 06:00N 70°20' E 018°05'3 5.0
2019-Apr-18 05:30N 70°18' E 017°60'3 5.2
2019-Apr-18 05:00N 70°16' E 017°54'2 4.3
2019-Apr-18 04:30N 70°15' E 017°50'2 3.9
2019-Apr-18 04:00N 70°13' E 017°46'3 5.2
2019-Apr-18 03:30N 70°12' E 017°40'3 6.2
2019-Apr-18 03:00N 70°10' E 017°34'4 7.0
2019-Apr-18 02:30N 70°07' E 017°26'3 6.2
2019-Apr-18 02:00N 70°05' E 017°21'3 5.5
2019-Apr-18 01:30N 70°03' E 017°16'3 5.7
2019-Apr-18 01:00N 70°00' E 017°11'2 5.0
2019-Apr-18 00:30N 69°58' E 017°13'3 5.4
2019-Apr-18 00:00N 69°55' E 017°17'3 5.1
2019-Apr-17 23:30N 69°53' E 017°22'3 6.3
2019-Apr-17 23:00N 69°51' E 017°27'4 8.4
2019-Apr-17 22:30N 69°47' E 017°34'4 8.2
2019-Apr-17 22:00N 69°44' E 017°40'4 8.1
2019-Apr-17 21:30N 69°40' E 017°46'4 8.2
2019-Apr-17 21:00N 69°37' E 017°52'4 8.3
2019-Apr-17 20:30N 69°34' E 017°60'4 8.6
2019-Apr-17 20:00N 69°31' E 018°09'4 8.2
2019-Apr-17 19:30N 69°31' E 018°21'4 8.1
2019-Apr-17 19:00N 69°32' E 018°32'4 7.8
2019-Apr-17 18:29N 69°33' E 018°43'3 6.0
2019-Apr-17 18:00N 69°35' E 018°51'4 7.4
2019-Apr-17 17:29N 69°38' E 018°56'1 2.2
2019-Apr-17 16:59N 69°39' E 018°58'0 0.0
2019-Apr-17 16:30N 69°39' E 018°58'0 0.0
2019-Apr-17 16:00N 69°39' E 018°58'0 0.0
2019-Apr-17 15:30N 69°39' E 018°58'0 0.0
2019-Apr-17 14:58N 69°39' E 018°58'0 0.0
2019-Apr-17 14:28N 69°39' E 018°58'0 0.0
2019-Apr-17 13:58N 69°39' E 018°58'0 0.0
2019-Apr-17 13:29N 69°39' E 018°58'0 0.0
2019-Apr-17 12:59N 69°39' E 018°58'0 0.0
2019-Apr-17 12:29N 69°39' E 018°58'0 0.0
2019-Apr-17 12:00N 69°39' E 018°58'0 0.0
2019-Apr-17 11:30N 69°39' E 018°58'0 0.0
2019-Apr-17 11:00N 69°39' E 018°58'0 0.0
2019-Apr-17 10:28N 69°39' E 018°58'0 0.0
2019-Apr-17 09:58N 69°39' E 018°58'0 0.0
2019-Apr-17 09:28N 69°39' E 018°58'0 0.0
2019-Apr-17 08:59N 69°39' E 018°58'0 0.0
2019-Apr-17 08:29N 69°39' E 018°58'0 0.0
2019-Apr-17 07:59N 69°39' E 018°58'0 0.0
2019-Apr-17 07:30N 69°39' E 018°58'0 0.0
2019-Apr-17 07:00N 69°39' E 018°58'0 0.0
2019-Apr-17 06:30N 69°39' E 018°58'0 0.0
2019-Apr-17 05:58N 69°39' E 018°58'0 0.0
2019-Apr-17 05:29N 69°39' E 018°58'0 0.0
2019-Apr-17 04:59N 69°39' E 018°58'0 0.0
2019-Apr-17 04:29N 69°39' E 018°58'0 0.0
2019-Apr-17 04:00N 69°39' E 018°58'0 0.0
2019-Apr-17 03:30N 69°39' E 018°58'0 0.0
2019-Apr-17 03:00N 69°39' E 018°58'0 0.0
2019-Apr-17 02:28N 69°39' E 018°58'0 0.0
2019-Apr-17 01:58N 69°39' E 018°58'0 0.0
2019-Apr-17 01:28N 69°39' E 018°58'0 0.0
2019-Apr-17 00:59N 69°39' E 018°58'0 0.0
2019-Apr-17 00:29N 69°39' E 018°58'0 0.0
2019-Apr-16 23:59N 69°39' E 018°58'0 0.0
2019-Apr-16 23:30N 69°39' E 018°58'0 0.0
2019-Apr-16 23:00N 69°39' E 018°58'0 0.0
2019-Apr-16 22:30N 69°39' E 018°58'0 0.0
2019-Apr-16 21:59N 69°39' E 018°58'0 0.0
2019-Apr-16 21:29N 69°39' E 018°58'0 0.0
2019-Apr-16 20:59N 69°39' E 018°58'0 0.0
2019-Apr-16 20:30N 69°39' E 018°58'0 0.0
2019-Apr-16 20:00N 69°39' E 018°58'0 0.0
2019-Apr-16 19:30N 69°39' E 018°58'0 0.0
2019-Apr-16 18:58N 69°39' E 018°58'0 0.0
2019-Apr-16 18:28N 69°39' E 018°58'0 0.0
2019-Apr-16 17:58N 69°39' E 018°58'0 0.0
2019-Apr-16 17:29N 69°39' E 018°58'0 0.0
2019-Apr-16 16:59N 69°39' E 018°58'0 0.0
2019-Apr-16 16:29N 69°39' E 018°58'0 0.0
2019-Apr-16 15:57N 69°39' E 018°58'0 0.0
2019-Apr-16 15:30N 69°39' E 018°58'0 0.0
2019-Apr-16 15:00N 69°39' E 018°58'0 0.0
2019-Apr-16 14:28N 69°39' E 018°58'0 0.0
2019-Apr-16 13:58N 69°39' E 018°58'0 0.0
2019-Apr-16 13:28N 69°39' E 018°58'0 0.0
2019-Apr-16 12:58N 69°39' E 018°58'0 0.4
2019-Apr-16 12:30N 69°39' E 018°58'2 4.2
2019-Apr-16 12:00N 69°39' E 018°52'5 9.1
2019-Apr-16 11:30N 69°43' E 018°59'510.3
2019-Apr-16 11:00N 69°47' E 019°11'510.0
2019-Apr-16 10:30N 69°48' E 019°24'510.2
2019-Apr-16 10:00N 69°50' E 019°38'510.3
2019-Apr-16 09:30N 69°53' E 019°51'510.2
2019-Apr-16 09:00N 69°56' E 020°03'3 5.4
2019-Apr-16 08:30N 69°56' E 020°11'0 0.4
2019-Apr-16 08:00N 69°56' E 020°11'0 0.0
2019-Apr-16 07:30N 69°56' E 020°11'0 0.0
2019-Apr-16 07:00N 69°56' E 020°11'0 0.0
2019-Apr-16 06:28N 69°56' E 020°11'0 0.0
2019-Apr-16 05:58N 69°56' E 020°11'0 0.0
2019-Apr-16 05:28N 69°56' E 020°11'0 0.0
2019-Apr-16 04:59N 69°56' E 020°11'0 0.0
2019-Apr-16 04:29N 69°56' E 020°11'0 0.0
2019-Apr-16 03:59N 69°56' E 020°11'  
Track history (hours):
 
Tides and Currents Weather Stations Pressure Air Temp Water Temp Dewpoint Dewpoint Depression Visibility Wind Speed Wind Dir Waves Ship Positions

Christian Radich (Norway)

Last reported at 2019-Apr-26 03:30 UTC. Time now 2019-Apr-26 03:52 UTC.
Position N 62°28' E 006°09'.

Length 63 m; draft 5 m.

MMSI: 258373000.

Date/timePositionNaut miles runAvg speedWind from/ knotsBaromVisibWave heightAir tempDewpointWater temp
2019-Apr-26 03:30N 62°28' E 006°09'0 0.0
2019-Apr-26 03:00N 62°28' E 006°09'0 0.0
2019-Apr-26 02:28N 62°28' E 006°09'0 0.0
2019-Apr-26 01:58N 62°28' E 006°09'0 0.0
2019-Apr-26 01:28N 62°28' E 006°09'0 0.0
2019-Apr-26 00:59N 62°28' E 006°09'0 0.0
2019-Apr-26 00:29N 62°28' E 006°09'0 0.0
2019-Apr-25 23:59N 62°28' E 006°09'0 0.0
2019-Apr-25 23:30N 62°28' E 006°09'0 0.0
2019-Apr-25 22:54N 62°28' E 006°09'0 0.0
2019-Apr-25 22:30N 62°28' E 006°09'0 0.0
2019-Apr-25 21:58N 62°28' E 006°09'0 0.0
2019-Apr-25 21:28N 62°28' E 006°09'0 0.0
2019-Apr-25 20:58N 62°28' E 006°09'0 0.0
2019-Apr-25 20:29N 62°28' E 006°09'0 0.0
2019-Apr-25 19:59N 62°28' E 006°09'0 0.0
2019-Apr-25 19:29N 62°28' E 006°09'0 0.0
2019-Apr-25 19:00N 62°28' E 006°09'0 0.0
2019-Apr-25 18:30N 62°28' E 006°09'0 0.0
2019-Apr-25 18:00N 62°28' E 006°09'0 0.0
2019-Apr-25 17:28N 62°28' E 006°09'0 0.0
2019-Apr-25 16:58N 62°28' E 006°09'0 0.0
2019-Apr-25 16:28N 62°28' E 006°09'0 0.0
2019-Apr-25 15:59N 62°28' E 006°09'0 0.0
2019-Apr-25 15:29N 62°28' E 006°09'0 0.0
2019-Apr-25 14:59N 62°28' E 006°09'0 0.0
2019-Apr-25 14:30N 62°28' E 006°09'0 0.0
2019-Apr-25 14:00N 62°28' E 006°09'0 0.0
2019-Apr-25 13:30N 62°28' E 006°09'0 0.0
2019-Apr-25 12:58N 62°28' E 006°09'0 0.0
2019-Apr-25 12:28N 62°28' E 006°09'0 0.0
2019-Apr-25 11:58N 62°28' E 006°09'0 0.0
2019-Apr-25 11:29N 62°28' E 006°09'0 0.0
2019-Apr-25 10:56N 62°28' E 006°09'0 0.0
2019-Apr-25 10:29N 62°28' E 006°09'0 0.0
2019-Apr-25 09:57N 62°28' E 006°09'0 0.0
2019-Apr-25 09:30N 62°28' E 006°09'0 0.0
2019-Apr-25 09:00N 62°28' E 006°09'0 0.0
2019-Apr-25 08:28N 62°28' E 006°09'0 0.0
2019-Apr-25 07:58N 62°28' E 006°09'0 0.0
2019-Apr-25 07:28N 62°28' E 006°09'0 0.0
2019-Apr-25 06:59N 62°28' E 006°09'0 0.0
2019-Apr-25 06:29N 62°28' E 006°09'0 0.0
2019-Apr-25 05:53N 62°28' E 006°09'0 0.0
2019-Apr-25 05:30N 62°28' E 006°09'0 0.0
2019-Apr-25 05:00N 62°28' E 006°09'0 0.0
2019-Apr-25 04:24N 62°28' E 006°09'0 0.0
2019-Apr-25 04:01N 62°28' E 006°09'0 0.0
2019-Apr-25 03:25N 62°28' E 006°09'0 0.0
2019-Apr-25 02:58N 62°28' E 006°09'0 0.0
2019-Apr-25 02:29N 62°28' E 006°09'0 0.0
2019-Apr-25 01:59N 62°28' E 006°09'0 0.0
2019-Apr-25 01:29N 62°28' E 006°09'0 0.0
2019-Apr-25 01:00N 62°28' E 006°09'0 0.0
2019-Apr-25 00:30N 62°28' E 006°09'0 0.0
2019-Apr-25 00:00N 62°28' E 006°09'0 0.0
2019-Apr-24 23:31N 62°28' E 006°09'0 0.0
2019-Apr-24 22:58N 62°28' E 006°09'0 0.0
2019-Apr-24 22:28N 62°28' E 006°09'0 0.0
2019-Apr-24 21:59N 62°28' E 006°09'0 0.0
2019-Apr-24 21:29N 62°28' E 006°09'0 0.0
2019-Apr-24 20:59N 62°28' E 006°09'0 0.0
2019-Apr-24 20:24N 62°28' E 006°09'0 0.0
2019-Apr-24 20:00N 62°28' E 006°09'0 0.0
2019-Apr-24 19:27N 62°28' E 006°09'0 0.0
2019-Apr-24 18:55N 62°28' E 006°09'0 0.0
2019-Apr-24 18:28N 62°28' E 006°09'0 0.0
2019-Apr-24 17:58N 62°28' E 006°09'0 0.0
2019-Apr-24 17:26N 62°28' E 006°09'0 0.2
2019-Apr-24 17:00N 62°28' E 006°10'2 3.5
2019-Apr-24 16:30N 62°27' E 006°07'2 3.4
2019-Apr-24 16:00N 62°28' E 006°05'2 5.0
2019-Apr-24 15:30N 62°30' E 006°09'3 5.6
2019-Apr-24 14:59N 62°33' E 006°10'4 8.1
2019-Apr-24 14:30N 62°36' E 006°16'4 9.0
2019-Apr-24 14:00N 62°39' E 006°24'4 8.9
2019-Apr-24 13:30N 62°43' E 006°29'5 9.3
2019-Apr-24 13:00N 62°46' E 006°34'5 9.2
2019-Apr-24 12:30N 62°50' E 006°40'5 9.1
2019-Apr-24 12:00N 62°54' E 006°46'5 9.3
2019-Apr-24 11:30N 62°58' E 006°52'5 9.0
2019-Apr-24 10:59N 63°00' E 007°01'4 9.2
2019-Apr-24 10:30N 63°02' E 007°10'5 9.2
2019-Apr-24 10:00N 63°03' E 007°19'5 9.2
2019-Apr-24 09:30N 63°05' E 007°29'5 9.3
2019-Apr-24 09:00N 63°08' E 007°37'4 8.9
2019-Apr-24 08:30N 63°10' E 007°45'4 8.8
2019-Apr-24 08:00N 63°13' E 007°53'4 8.9
2019-Apr-24 07:31N 63°15' E 008°02'5 9.0
2019-Apr-24 07:01N 63°17' E 008°11'5 9.0
2019-Apr-24 06:30N 63°20' E 008°19'5 9.5
2019-Apr-24 06:01N 63°23' E 008°27'5 9.7
2019-Apr-24 05:30N 63°25' E 008°37'5 9.9
2019-Apr-24 05:00N 63°27' E 008°47'5 9.8
2019-Apr-24 04:30N 63°28' E 008°57'5 9.8
2019-Apr-24 04:00N 63°31' E 009°07'5 9.1
2019-Apr-24 03:30N 63°33' E 009°15'4 9.2
2019-Apr-24 03:01N 63°38' E 009°16'4 8.7
2019-Apr-24 02:30N 63°42' E 009°15'4 8.9
2019-Apr-24 02:00N 63°47' E 009°14'4 8.7
2019-Apr-24 01:30N 63°51' E 009°16'5 9.0
2019-Apr-24 01:00N 63°55' E 009°21'5 9.5
2019-Apr-24 00:30N 63°59' E 009°25'5 9.6
2019-Apr-24 00:00N 64°04' E 009°29'5 9.1
2019-Apr-23 23:30N 64°08' E 009°35'5 9.3
2019-Apr-23 23:00N 64°11' E 009°42'5 9.7
2019-Apr-23 22:30N 64°15' E 009°50'5 9.1
2019-Apr-23 22:00N 64°18' E 009°57'5 9.0
2019-Apr-23 21:29N 64°21' E 010°04'4 8.8
2019-Apr-23 21:00N 64°24' E 010°11'4 9.0
2019-Apr-23 20:30N 64°28' E 010°18'5 9.2
2019-Apr-23 20:00N 64°31' E 010°25'5 9.1
2019-Apr-23 19:30N 64°34' E 010°33'5 9.5
2019-Apr-23 19:00N 64°38' E 010°41'5 9.6
2019-Apr-23 18:30N 64°41' E 010°48'5 9.8
2019-Apr-23 18:00N 64°44' E 010°57'5 9.6
2019-Apr-23 17:30N 64°47' E 011°05'5 9.9
2019-Apr-23 17:00N 64°51' E 011°13'5 9.7
2019-Apr-23 16:30N 64°54' E 011°22'5 9.7
2019-Apr-23 16:00N 64°57' E 011°31'5 9.2
2019-Apr-23 15:29N 65°01' E 011°39'4 9.0
2019-Apr-23 15:00N 65°04' E 011°45'4 8.4
2019-Apr-23 14:30N 65°08' E 011°49'2 4.3
2019-Apr-23 14:00N 65°10' E 011°51'4 8.7
2019-Apr-23 13:30N 65°14' E 011°55'4 9.1
2019-Apr-23 13:00N 65°18' E 011°59'4 8.0
2019-Apr-23 12:30N 65°22' E 012°02'4 8.1
2019-Apr-23 12:00N 65°25' E 011°57'4 7.9
2019-Apr-23 11:30N 65°29' E 011°59'4 8.7
2019-Apr-23 11:01N 65°33' E 012°03'5 9.0
2019-Apr-23 10:30N 65°36' E 012°11'4 8.7
2019-Apr-23 10:00N 65°40' E 012°14'4 8.5
2019-Apr-23 09:29N 65°44' E 012°17'4 8.9
2019-Apr-23 09:00N 65°49' E 012°20'4 8.8
2019-Apr-23 08:30N 65°53' E 012°22'4 8.6
2019-Apr-23 08:00N 65°57' E 012°25'4 8.0
2019-Apr-23 07:30N 66°00' E 012°31'5 9.2
2019-Apr-23 07:01N 66°04' E 012°38'4 8.6
2019-Apr-23 06:30N 66°07' E 012°45'4 8.7
2019-Apr-23 06:00N 66°11' E 012°50'4 8.8
2019-Apr-23 05:30N 66°15' E 012°54'4 8.0
2019-Apr-23 05:00N 66°19' E 012°56'4 7.4
2019-Apr-23 04:30N 66°22' E 012°58'4 7.3
2019-Apr-23 04:00N 66°26' E 012°59'3 7.0
2019-Apr-23 03:31N 66°30' E 012°59'3 6.1
2019-Apr-23 03:00N 66°33' E 012°60'3 6.5
2019-Apr-23 02:30N 66°35' E 013°05'4 7.1
2019-Apr-23 02:00N 66°39' E 013°06'4 7.1
2019-Apr-23 01:28N 66°42' E 013°10'3 6.9
2019-Apr-23 01:00N 66°45' E 013°13'3 6.7
2019-Apr-23 00:30N 66°48' E 013°15'3 6.0
2019-Apr-23 00:00N 66°51' E 013°19'3 6.6
2019-Apr-22 23:30N 66°54' E 013°25'3 5.9
2019-Apr-22 22:59N 66°56' E 013°29'2 4.8
2019-Apr-22 22:30N 66°58' E 013°32'3 5.1
2019-Apr-22 22:00N 66°60' E 013°37'3 6.3
2019-Apr-22 21:29N 67°01' E 013°44'3 6.2
2019-Apr-22 21:01N 67°03' E 013°51'3 6.4
2019-Apr-22 20:31N 67°05' E 013°56'3 5.9
2019-Apr-22 20:00N 67°08' E 014°01'3 5.5
2019-Apr-22 19:31N 67°10' E 014°03'3 5.8
2019-Apr-22 19:00N 67°13' E 014°07'3 5.6
2019-Apr-22 18:30N 67°15' E 014°10'3 5.2
2019-Apr-22 18:01N 67°17' E 014°14'3 5.0
2019-Apr-22 17:30N 67°19' E 014°18'3 5.7
2019-Apr-22 17:00N 67°21' E 014°23'3 5.3
2019-Apr-22 16:30N 67°24' E 014°26'2 4.6
2019-Apr-22 16:01N 67°26' E 014°28'1 2.3
2019-Apr-22 15:30N 67°27' E 014°28'1 2.7
2019-Apr-22 15:01N 67°28' E 014°27'2 4.0
2019-Apr-22 14:30N 67°30' E 014°25'3 6.2
2019-Apr-22 14:01N 67°33' E 014°22'3 6.5
2019-Apr-22 13:28N 67°36' E 014°18'3 6.4
2019-Apr-22 13:00N 67°39' E 014°15'4 7.4
2019-Apr-22 12:30N 67°43' E 014°14'4 8.1
2019-Apr-22 12:01N 67°47' E 014°17'4 8.2
2019-Apr-22 11:30N 67°50' E 014°22'5 8.7
2019-Apr-22 10:59N 67°54' E 014°31'4 8.8
2019-Apr-22 10:30N 67°56' E 014°39'4 9.0
2019-Apr-22 10:01N 67°59' E 014°48'5 8.9
2019-Apr-22 09:29N 68°02' E 014°58'4 9.1
2019-Apr-22 09:00N 68°05' E 015°07'4 8.8
2019-Apr-22 08:30N 68°08' E 015°16'4 8.7
2019-Apr-22 08:00N 68°10' E 015°25'510.0
2019-Apr-22 07:30N 68°13' E 015°36'5 9.7
2019-Apr-22 06:59N 68°17' E 015°45'5 9.6
2019-Apr-22 06:30N 68°20' E 015°54'5 9.7
2019-Apr-22 06:00N 68°24' E 016°02'4 8.7
2019-Apr-22 05:30N 68°28' E 016°06'4 7.6
2019-Apr-22 05:00N 68°32' E 016°11'4 7.2
2019-Apr-22 04:30N 68°33' E 016°20'4 7.4
2019-Apr-22 04:00N 68°33' E 016°30'3 6.4
2019-Apr-22 03:30N 68°36' E 016°33'3 5.7
2019-Apr-22 03:00N 68°39' E 016°37'3 6.5
2019-Apr-22 02:30N 68°42' E 016°41'4 7.1
2019-Apr-22 02:00N 68°45' E 016°46'4 7.4
2019-Apr-22 01:31N 68°48' E 016°50'4 7.5
2019-Apr-22 01:00N 68°51' E 016°55'4 7.3
2019-Apr-22 00:30N 68°55' E 016°60'3 6.8
2019-Apr-22 00:00N 68°57' E 017°05'3 6.4
2019-Apr-21 23:31N 68°59' E 017°12'3 6.3
2019-Apr-21 23:00N 69°02' E 017°18'3 6.3
2019-Apr-21 22:30N 69°05' E 017°22'3 6.3
2019-Apr-21 22:00N 69°06' E 017°29'3 7.0
2019-Apr-21 21:30N 69°08' E 017°38'4 7.5
2019-Apr-21 21:00N 69°09' E 017°48'4 7.8
2019-Apr-21 20:31N 69°10' E 017°58'3 6.0
2019-Apr-21 20:00N 69°13' E 017°57'4 8.0
2019-Apr-21 19:30N 69°17' E 017°58'4 6.9
2019-Apr-21 18:59N 69°20' E 018°03'3 5.6
2019-Apr-21 18:30N 69°23' E 018°05'4 7.3
2019-Apr-21 18:00N 69°27' E 018°07'3 6.4
2019-Apr-21 17:30N 69°29' E 018°12'4 8.1
2019-Apr-21 17:00N 69°31' E 018°23'4 7.5
2019-Apr-21 16:30N 69°32' E 018°33'4 7.4
2019-Apr-21 16:00N 69°33' E 018°43'4 8.4
2019-Apr-21 15:30N 69°36' E 018°52'4 7.4
2019-Apr-21 15:00N 69°40' E 018°52'3 5.8
2019-Apr-21 14:30N 69°42' E 018°57'3 5.3
2019-Apr-21 14:00N 69°40' E 018°51'2 3.0
2019-Apr-21 13:30N 69°41' E 018°54'2 4.4
2019-Apr-21 13:00N 69°43' E 018°59'3 6.1
2019-Apr-21 12:30N 69°45' E 019°04'3 6.0
2019-Apr-21 12:00N 69°47' E 019°12'4 7.3
2019-Apr-21 11:29N 69°48' E 019°22'4 7.7
2019-Apr-21 11:00N 69°49' E 019°32'4 8.7
2019-Apr-21 10:30N 69°51' E 019°44'4 8.6
2019-Apr-21 10:00N 69°53' E 019°54'4 8.5
2019-Apr-21 09:30N 69°56' E 020°04'2 4.7
2019-Apr-21 09:00N 69°57' E 020°11'1 1.4
2019-Apr-21 08:28N 69°56' E 020°11'0 0.1
2019-Apr-21 07:58N 69°56' E 020°11'0 0.0
2019-Apr-21 07:29N 69°56' E 020°11'0 0.0
2019-Apr-21 06:59N 69°56' E 020°11'0 0.0
2019-Apr-21 06:29N 69°56' E 020°11'0 0.0
2019-Apr-21 06:00N 69°56' E 020°11'0 0.0
2019-Apr-21 05:30N 69°56' E 020°11'0 0.0
2019-Apr-21 05:00N 69°56' E 020°11'0 0.0
2019-Apr-21 04:28N 69°56' E 020°11'0 0.0
2019-Apr-21 03:58N 69°56' E 020°11'0 0.0
2019-Apr-21 03:28N 69°56' E 020°11'0 0.0
2019-Apr-21 02:59N 69°56' E 020°11'0 0.0
2019-Apr-21 02:29N 69°56' E 020°11'0 0.0
2019-Apr-21 01:59N 69°56' E 020°11'0 0.0
2019-Apr-21 01:30N 69°56' E 020°11'0 0.0
2019-Apr-21 01:00N 69°56' E 020°11'0 0.0
2019-Apr-21 00:30N 69°56' E 020°11'0 0.0
2019-Apr-20 23:58N 69°56' E 020°11'0 0.0
2019-Apr-20 23:28N 69°56' E 020°11'0 0.0
2019-Apr-20 22:59N 69°56' E 020°11'0 0.1
2019-Apr-20 22:29N 69°56' E 020°11'0 0.0
2019-Apr-20 21:59N 69°56' E 020°11'0 0.1
2019-Apr-20 21:30N 69°56' E 020°11'0 0.0
2019-Apr-20 21:00N 69°56' E 020°11'0 0.0
2019-Apr-20 20:30N 69°56' E 020°11'0 0.0
2019-Apr-20 20:01N 69°56' E 020°11'0 0.0
2019-Apr-20 19:28N 69°56' E 020°11'0 0.0
2019-Apr-20 18:58N 69°56' E 020°11'0 0.0
2019-Apr-20 18:29N 69°56' E 020°11'0 0.0
2019-Apr-20 17:59N 69°56' E 020°11'0 0.0
2019-Apr-20 17:29N 69°56' E 020°11'0 0.0
2019-Apr-20 17:00N 69°56' E 020°11'0 0.0
2019-Apr-20 16:30N 69°56' E 020°11'0 0.0
2019-Apr-20 16:00N 69°56' E 020°11'0 0.0
2019-Apr-20 15:28N 69°56' E 020°11'0 0.0
2019-Apr-20 14:58N 69°56' E 020°11'0 0.0
2019-Apr-20 14:28N 69°56' E 020°11'0 0.0
2019-Apr-20 13:59N 69°56' E 020°11'0 0.0
2019-Apr-20 13:29N 69°56' E 020°11'0 0.0
2019-Apr-20 12:59N 69°56' E 020°11'0 0.0
2019-Apr-20 12:30N 69°56' E 020°11'0 0.0
2019-Apr-20 12:00N 69°56' E 020°11'0 0.0
2019-Apr-20 11:30N 69°56' E 020°11'0 0.0
2019-Apr-20 10:58N 69°56' E 020°11'0 0.0
2019-Apr-20 10:28N 69°56' E 020°11'0 0.0
2019-Apr-20 09:58N 69°56' E 020°11'0 0.0
2019-Apr-20 09:29N 69°56' E 020°11'0 0.0
2019-Apr-20 08:59N 69°56' E 020°11'0 0.0
2019-Apr-20 08:29N 69°56' E 020°11'0 0.0
2019-Apr-20 08:00N 69°56' E 020°11'0 0.0
2019-Apr-20 07:30N 69°56' E 020°11'0 0.0
2019-Apr-20 07:00N 69°56' E 020°11'0 0.0
2019-Apr-20 06:28N 69°56' E 020°11'0 0.0
2019-Apr-20 05:58N 69°56' E 020°11'0 0.0
2019-Apr-20 05:28N 69°56' E 020°11'0 0.0
2019-Apr-20 04:59N 69°56' E 020°11'0 0.0
2019-Apr-20 04:29N 69°56' E 020°11'0 0.0
2019-Apr-20 03:59N 69°56' E 020°11'0 0.0
2019-Apr-20 03:30N 69°56' E 020°11'0 0.0
2019-Apr-20 03:00N 69°56' E 020°11'0 0.0
2019-Apr-20 02:30N 69°56' E 020°11'0 0.0
2019-Apr-20 01:58N 69°56' E 020°11'0 0.0
2019-Apr-20 01:28N 69°56' E 020°11'0 0.0
2019-Apr-20 00:58N 69°56' E 020°11'0 0.0
2019-Apr-20 00:29N 69°56' E 020°11'0 0.0
2019-Apr-19 23:59N 69°56' E 020°11'0 0.0
2019-Apr-19 23:29N 69°56' E 020°11'0 0.1
2019-Apr-19 23:00N 69°56' E 020°11'0 0.0
2019-Apr-19 22:30N 69°56' E 020°11'0 0.0
2019-Apr-19 22:00N 69°56' E 020°11'0 0.0
2019-Apr-19 21:28N 69°56' E 020°11'0 0.0
2019-Apr-19 20:58N 69°56' E 020°11'0 0.0
2019-Apr-19 20:28N 69°56' E 020°11'0 0.0
2019-Apr-19 19:59N 69°56' E 020°11'0 0.0
2019-Apr-19 19:29N 69°56' E 020°11'0 0.0
2019-Apr-19 18:59N 69°56' E 020°11'0 0.1
2019-Apr-19 18:29N 69°56' E 020°11'2 3.7
2019-Apr-19 18:00N 69°58' E 020°12'3 5.1
2019-Apr-19 17:30N 69°59' E 020°18'4 8.2
2019-Apr-19 17:00N 69°56' E 020°26'5 9.4
2019-Apr-19 16:30N 69°51' E 020°28'4 8.4
2019-Apr-19 16:00N 69°47' E 020°31'3 0.1
2019-Apr-18 18:01N 69°48' E 020°40'0 9.5
2019-Apr-18 17:59N 69°48' E 020°40'4 8.4
2019-Apr-18 17:30N 69°52' E 020°44'4 8.6
2019-Apr-18 17:00N 69°55' E 020°52'4 8.9
2019-Apr-18 16:30N 69°58' E 021°02'4 7.8
2019-Apr-18 15:58N 70°02' E 021°07'4 9.2
2019-Apr-18 15:30N 70°06' E 021°03'4 8.8
2019-Apr-18 15:00N 70°10' E 020°59'4 8.1
2019-Apr-18 14:28N 70°14' E 020°53'3 5.4
2019-Apr-18 13:59N 70°16' E 020°49'4 7.8
2019-Apr-18 13:29N 70°19' E 020°41'4 8.4
2019-Apr-18 13:00N 70°21' E 020°31'4 7.3
2019-Apr-18 12:30N 70°24' E 020°23'4 7.5
2019-Apr-18 12:00N 70°26' E 020°14'4 7.8
2019-Apr-18 11:30N 70°27' E 020°03'510.1
2019-Apr-18 11:00N 70°29' E 019°49'4 8.7
2019-Apr-18 10:30N 70°29' E 019°36'5 9.4
2019-Apr-18 09:59N 70°28' E 019°22'3 6.8
2019-Apr-18 09:30N 70°28' E 019°12'4 7.5
2019-Apr-18 08:58N 70°27' E 019°00'4 7.6
2019-Apr-18 08:30N 70°27' E 018°50'4 8.1
2019-Apr-18 08:00N 70°26' E 018°38'3 7.0
2019-Apr-18 07:30N 70°25' E 018°28'3 6.3
2019-Apr-18 07:00N 70°23' E 018°20'3 6.4
2019-Apr-18 06:30N 70°22' E 018°12'3 5.3
2019-Apr-18 06:00N 70°20' E 018°05'3 5.0
2019-Apr-18 05:30N 70°18' E 017°60'3 5.2
2019-Apr-18 05:00N 70°16' E 017°54'2 4.3
2019-Apr-18 04:30N 70°15' E 017°50'2 3.9
2019-Apr-18 04:00N 70°13' E 017°46'3 5.2
2019-Apr-18 03:30N 70°12' E 017°40'3 6.2
2019-Apr-18 03:00N 70°10' E 017°34'4 7.0
2019-Apr-18 02:30N 70°07' E 017°26'3 6.2
2019-Apr-18 02:00N 70°05' E 017°21'3 5.5
2019-Apr-18 01:30N 70°03' E 017°16'3 5.7
2019-Apr-18 01:00N 70°00' E 017°11'2 5.0
2019-Apr-18 00:30N 69°58' E 017°13'3 5.4
2019-Apr-18 00:00N 69°55' E 017°17'3 5.1
2019-Apr-17 23:30N 69°53' E 017°22'3 6.3
2019-Apr-17 23:00N 69°51' E 017°27'4 8.4
2019-Apr-17 22:30N 69°47' E 017°34'4 8.2
2019-Apr-17 22:00N 69°44' E 017°40'4 8.1
2019-Apr-17 21:30N 69°40' E 017°46'4 8.2
2019-Apr-17 21:00N 69°37' E 017°52'4 8.3
2019-Apr-17 20:30N 69°34' E 017°60'4 8.6
2019-Apr-17 20:00N 69°31' E 018°09'4 8.2
2019-Apr-17 19:30N 69°31' E 018°21'4 8.1
2019-Apr-17 19:00N 69°32' E 018°32'4 7.8
2019-Apr-17 18:29N 69°33' E 018°43'3 6.0
2019-Apr-17 18:00N 69°35' E 018°51'4 7.4
2019-Apr-17 17:29N 69°38' E 018°56'1 2.2
2019-Apr-17 16:59N 69°39' E 018°58'0 0.0
2019-Apr-17 16:30N 69°39' E 018°58'0 0.0
2019-Apr-17 16:00N 69°39' E 018°58'0 0.0
2019-Apr-17 15:30N 69°39' E 018°58'0 0.0
2019-Apr-17 14:58N 69°39' E 018°58'0 0.0
2019-Apr-17 14:28N 69°39' E 018°58'0 0.0
2019-Apr-17 13:58N 69°39' E 018°58'0 0.0
2019-Apr-17 13:29N 69°39' E 018°58'0 0.0
2019-Apr-17 12:59N 69°39' E 018°58'0 0.0
2019-Apr-17 12:29N 69°39' E 018°58'0 0.0
2019-Apr-17 12:00N 69°39' E 018°58'0 0.0
2019-Apr-17 11:30N 69°39' E 018°58'0 0.0
2019-Apr-17 11:00N 69°39' E 018°58'0 0.0
2019-Apr-17 10:28N 69°39' E 018°58'0 0.0
2019-Apr-17 09:58N 69°39' E 018°58'0 0.0
2019-Apr-17 09:28N 69°39' E 018°58'0 0.0
2019-Apr-17 08:59N 69°39' E 018°58'0 0.0
2019-Apr-17 08:29N 69°39' E 018°58'0 0.0
2019-Apr-17 07:59N 69°39' E 018°58'0 0.0
2019-Apr-17 07:30N 69°39' E 018°58'0 0.0
2019-Apr-17 07:00N 69°39' E 018°58'0 0.0
2019-Apr-17 06:30N 69°39' E 018°58'0 0.0
2019-Apr-17 05:58N 69°39' E 018°58'0 0.0
2019-Apr-17 05:29N 69°39' E 018°58'0 0.0
2019-Apr-17 04:59N 69°39' E 018°58'0 0.0
2019-Apr-17 04:29N 69°39' E 018°58'0 0.0
2019-Apr-17 04:00N 69°39' E 018°58'0 0.0
2019-Apr-17 03:30N 69°39' E 018°58'0 0.0
2019-Apr-17 03:00N 69°39' E 018°58'0 0.0
2019-Apr-17 02:28N 69°39' E 018°58'0 0.0
2019-Apr-17 01:58N 69°39' E 018°58'0 0.0
2019-Apr-17 01:28N 69°39' E 018°58'0 0.0
2019-Apr-17 00:59N 69°39' E 018°58'0 0.0
2019-Apr-17 00:29N 69°39' E 018°58'0 0.0
2019-Apr-16 23:59N 69°39' E 018°58'0 0.0
2019-Apr-16 23:30N 69°39' E 018°58'0 0.0
2019-Apr-16 23:00N 69°39' E 018°58'0 0.0
2019-Apr-16 22:30N 69°39' E 018°58'0 0.0
2019-Apr-16 21:59N 69°39' E 018°58'0 0.0
2019-Apr-16 21:29N 69°39' E 018°58'0 0.0
2019-Apr-16 20:59N 69°39' E 018°58'0 0.0
2019-Apr-16 20:30N 69°39' E 018°58'0 0.0
2019-Apr-16 20:00N 69°39' E 018°58'0 0.0
2019-Apr-16 19:30N 69°39' E 018°58'0 0.0
2019-Apr-16 18:58N 69°39' E 018°58'0 0.0
2019-Apr-16 18:28N 69°39' E 018°58'0 0.0
2019-Apr-16 17:58N 69°39' E 018°58'0 0.0
2019-Apr-16 17:29N 69°39' E 018°58'0 0.0
2019-Apr-16 16:59N 69°39' E 018°58'0 0.0
2019-Apr-16 16:29N 69°39' E 018°58'0 0.0
2019-Apr-16 15:57N 69°39' E 018°58'0 0.0
2019-Apr-16 15:30N 69°39' E 018°58'0 0.0
2019-Apr-16 15:00N 69°39' E 018°58'0 0.0
2019-Apr-16 14:28N 69°39' E 018°58'0 0.0
2019-Apr-16 13:58N 69°39' E 018°58'0 0.0
2019-Apr-16 13:28N 69°39' E 018°58'0 0.0
2019-Apr-16 12:58N 69°39' E 018°58'0 0.4
2019-Apr-16 12:30N 69°39' E 018°58'2 4.2
2019-Apr-16 12:00N 69°39' E 018°52'5 9.1
2019-Apr-16 11:30N 69°43' E 018°59'510.3
2019-Apr-16 11:00N 69°47' E 019°11'510.0
2019-Apr-16 10:30N 69°48' E 019°24'510.2
2019-Apr-16 10:00N 69°50' E 019°38'510.3
2019-Apr-16 09:30N 69°53' E 019°51'510.2
2019-Apr-16 09:00N 69°56' E 020°03'3 5.4
2019-Apr-16 08:30N 69°56' E 020°11'0 0.4
2019-Apr-16 08:00N 69°56' E 020°11'0 0.0
2019-Apr-16 07:30N 69°56' E 020°11'0 0.0
2019-Apr-16 07:00N 69°56' E 020°11'0 0.0
2019-Apr-16 06:28N 69°56' E 020°11'0 0.0
2019-Apr-16 05:58N 69°56' E 020°11'0 0.0
2019-Apr-16 05:28N 69°56' E 020°11'0 0.0
2019-Apr-16 04:59N 69°56' E 020°11'0 0.0
2019-Apr-16 04:29N 69°56' E 020°11'0 0.0
2019-Apr-16 03:59N 69°56' E 020°11'  

Dump ship's entire track history